Time;durP1;ratioP1;P1;durP2;ratioP2;P2;SDS_P1;SDS_P2;PMS_P1;PMS_P2;Temp;Humidity;BMP_temperature;BMP_pressure;BME280_temperature;BME280_humidity;BME280_pressure;Samples;Min_cycle;Max_cycle;Signal;HPM_P1;HPM_P2
2023/08/27 00:00:40;;;;;;;0.22;0.22;;;22.50;73.00;;;;;;5027138;28;20521;-76
2023/08/27 00:03:06;;;;;;;0.65;0.30;;;22.50;73.00;;;;;;5026222;28;20048;-75
2023/08/27 00:05:31;;;;;;;0.38;0.35;;;22.50;73.00;;;;;;5025033;28;20041;-76
2023/08/27 00:07:57;;;;;;;0.40;0.40;;;22.50;73.00;;;;;;5027575;28;20033;-75
2023/08/27 00:10:23;;;;;;;0.32;0.32;;;22.50;73.00;;;;;;5024753;28;20056;-75
2023/08/27 00:12:48;;;;;;;0.40;0.40;;;22.50;73.00;;;;;;5026170;28;20037;-75
2023/08/27 00:15:14;;;;;;;0.22;0.22;;;22.50;72.90;;;;;;5025094;28;20121;-75
2023/08/27 00:17:39;;;;;;;0.30;0.30;;;22.50;73.00;;;;;;5023831;28;20052;-75
2023/08/27 00:20:09;;;;;;;0.22;0.22;;;22.50;72.90;;;;;;5023207;28;20037;-75
2023/08/27 00:22:38;;;;;;;0.30;0.30;;;22.50;72.90;;;;;;5023960;28;20507;-76
2023/08/27 00:25:04;;;;;;;0.40;0.30;;;22.50;73.60;;;;;;5026533;28;20076;-75
2023/08/27 00:27:29;;;;;;;0.30;0.28;;;22.50;72.80;;;;;;5025652;28;20061;-75
2023/08/27 00:29:55;;;;;;;0.63;0.43;;;22.50;72.80;;;;;;5020992;28;20064;-75
2023/08/27 00:32:20;;;;;;;0.30;0.30;;;22.50;72.80;;;;;;5024372;28;20438;-75
2023/08/27 00:34:46;;;;;;;0.30;0.30;;;22.50;72.80;;;;;;5026094;28;20026;-75
2023/08/27 00:37:11;;;;;;;0.28;0.28;;;22.50;72.80;;;;;;5021632;28;20458;-75
2023/08/27 00:39:38;;;;;;;0.30;0.30;;;22.50;72.80;;;;;;5022147;28;20041;-75
2023/08/27 00:42:04;;;;;;;0.20;0.20;;;22.50;72.80;;;;;;5008371;28;20415;-75
2023/08/27 00:44:30;;;;;;;0.20;0.20;;;22.50;72.80;;;;;;5026976;28;20033;-75
2023/08/27 00:46:56;;;;;;;0.20;0.20;;;22.50;72.80;;;;;;5023997;28;20458;-75
2023/08/27 00:49:22;;;;;;;0.55;0.55;;;22.50;72.80;;;;;;5009278;28;20099;-75
2023/08/27 00:51:47;;;;;;;0.28;0.28;;;22.50;72.80;;;;;;5025246;28;20042;-75
2023/08/27 00:54:13;;;;;;;0.30;0.30;;;22.50;72.80;;;;;;5023567;28;20541;-75
2023/08/27 00:56:40;;;;;;;0.38;0.28;;;22.40;72.70;;;;;;5021434;28;20092;-74
2023/08/27 00:59:06;;;;;;;0.55;0.20;;;22.40;72.80;;;;;;5025278;28;20060;-75
2023/08/27 01:01:31;;;;;;;0.43;0.40;;;22.50;72.80;;;;;;5024894;28;20046;-75
2023/08/27 01:03:57;;;;;;;0.28;0.20;;;22.50;72.80;;;;;;4990190;28;20034;-75
2023/08/27 01:06:22;;;;;;;0.30;0.30;;;22.50;72.70;;;;;;5025980;28;20575;-75
2023/08/27 01:08:54;;;;;;;0.30;0.30;;;22.40;72.60;;;;;;5023558;28;20065;-75
2023/08/27 01:11:29;;;;;;;0.57;0.55;;;22.40;72.60;;;;;;5006586;28;20419;-75
2023/08/27 01:14:02;;;;;;;0.30;0.30;;;22.50;72.70;;;;;;5024246;28;20053;-75
2023/08/27 01:16:27;;;;;;;0.20;0.20;;;22.50;73.50;;;;;;5010578;28;20044;-75
2023/08/27 01:18:53;;;;;;;0.50;0.40;;;22.40;72.60;;;;;;5009908;28;20140;-75
2023/08/27 01:21:20;;;;;;;0.30;0.30;;;22.50;72.60;;;;;;5027450;28;20041;-75
2023/08/27 01:23:45;;;;;;;0.40;0.30;;;22.40;72.50;;;;;;5027911;28;20520;-74
2023/08/27 01:26:17;;;;;;;0.50;0.40;;;22.50;72.60;;;;;;5028030;28;20025;-75
2023/08/27 01:28:45;;;;;;;0.28;0.28;;;22.50;72.60;;;;;;5028132;28;20042;-75
2023/08/27 01:31:15;;;;;;;0.40;0.30;;;22.40;72.60;;;;;;5028854;28;20050;-75
2023/08/27 01:33:41;;;;;;;0.40;0.40;;;22.40;72.50;;;;;;5012103;28;20069;-75
2023/08/27 01:36:07;;;;;;;0.20;0.20;;;22.40;72.50;;;;;;5012197;28;20133;-75
2023/08/27 01:38:33;;;;;;;0.43;0.32;;;22.40;73.30;;;;;;5028714;28;20491;-74
2023/08/27 01:40:59;;;;;;;0.30;0.30;;;22.40;72.40;;;;;;5026029;28;20040;-75
2023/08/27 01:43:24;;;;;;;0.70;0.20;;;22.40;72.40;;;;;;5030464;28;20095;-74
2023/08/27 01:45:50;;;;;;;0.80;0.40;;;22.40;72.40;;;;;;5029347;28;20044;-75
2023/08/27 01:48:16;;;;;;;0.30;0.30;;;22.40;72.40;;;;;;5027519;28;20160;-75
2023/08/27 01:50:41;;;;;;;0.30;0.20;;;22.40;72.40;;;;;;5027742;28;20038;-75
2023/08/27 01:53:07;;;;;;;0.45;0.45;;;22.40;72.40;;;;;;5025283;28;20044;-74
2023/08/27 01:55:34;;;;;;;0.30;0.30;;;22.40;72.30;;;;;;5028737;28;20543;-75
2023/08/27 01:57:59;;;;;;;0.38;0.30;;;22.40;72.40;;;;;;5007853;28;20037;-75
2023/08/27 02:00:25;;;;;;;0.47;0.30;;;22.40;72.30;;;;;;5027813;28;20675;-75
2023/08/27 02:02:51;;;;;;;0.20;0.20;;;22.40;72.30;;;;;;5027586;28;20049;-74
2023/08/27 02:05:16;;;;;;;0.22;0.22;;;22.40;72.10;;;;;;5028614;28;20454;-76
2023/08/27 02:07:42;;;;;;;0.32;0.32;;;22.30;72.20;;;;;;5027064;28;20588;-75
2023/08/27 02:10:08;;;;;;;0.93;0.35;;;22.40;73.00;;;;;;5027672;28;20045;-76
2023/08/27 02:12:34;;;;;;;0.20;0.20;;;22.30;72.10;;;;;;5030415;28;20530;-76
2023/08/27 02:14:59;;;;;;;0.57;0.30;;;22.40;73.10;;;;;;5026573;28;20087;-76
2023/08/27 02:17:25;;;;;;;0.55;0.50;;;22.40;72.30;;;;;;5027197;28;20034;-75
2023/08/27 02:19:50;;;;;;;0.20;0.17;;;22.30;72.10;;;;;;5028139;28;20045;-75
2023/08/27 02:22:16;;;;;;;0.30;0.30;;;22.30;72.10;;;;;;5029021;28;20399;-75
2023/08/27 02:24:42;;;;;;;0.32;0.22;;;22.40;72.10;;;;;;5027086;28;20451;-75
2023/08/27 02:27:07;;;;;;;0.30;0.30;;;22.40;72.10;;;;;;5027180;28;20533;-75
2023/08/27 02:29:34;;;;;;;0.57;0.30;;;22.30;72.00;;;;;;5027373;28;20045;-75
2023/08/27 02:32:00;;;;;;;0.20;0.20;;;22.30;72.00;;;;;;5026795;28;20053;-75
2023/08/27 02:34:25;;;;;;;0.40;0.28;;;22.30;72.00;;;;;;5026047;28;20041;-75
2023/08/27 02:36:51;;;;;;;0.57;0.32;;;22.30;72.00;;;;;;5028613;28;20037;-75
2023/08/27 02:39:16;;;;;;;0.30;0.25;;;22.30;71.90;;;;;;5055709;28;20056;-75
2023/08/27 02:41:42;;;;;;;0.28;0.20;;;22.30;71.90;;;;;;5027121;28;20483;-75
2023/08/27 02:44:07;;;;;;;0.43;0.43;;;22.30;71.80;;;;;;5027534;28;20439;-75
2023/08/27 02:46:33;;;;;;;0.90;0.43;;;22.30;71.80;;;;;;5023974;28;20045;-75
2023/08/27 02:48:58;;;;;;;0.22;0.20;;;22.30;71.80;;;;;;5026696;28;20030;-74
2023/08/27 02:51:24;;;;;;;1.27;0.47;;;22.30;71.80;;;;;;5028221;28;20108;-75
2023/08/27 02:53:51;;;;;;;1.23;0.40;;;22.30;71.80;;;;;;5024896;28;20429;-76
2023/08/27 02:56:17;;;;;;;0.17;0.17;;;22.30;72.60;;;;;;5026889;28;20049;-75
2023/08/27 02:58:43;;;;;;;0.38;0.30;;;22.30;71.80;;;;;;5025616;28;20049;-75
2023/08/27 03:01:09;;;;;;;0.30;0.30;;;22.30;71.80;;;;;;5028391;28;20041;-75
2023/08/27 03:03:35;;;;;;;0.20;0.20;;;22.30;71.80;;;;;;5029315;28;20033;-75
2023/08/27 03:06:00;;;;;;;0.28;0.20;;;22.30;71.80;;;;;;5025896;28;20476;-75
2023/08/27 03:08:26;;;;;;;0.20;0.20;;;22.30;71.70;;;;;;5028240;28;20041;-75
2023/08/27 03:10:52;;;;;;;0.20;0.20;;;22.30;71.70;;;;;;5027596;28;20041;-74
2023/08/27 03:13:17;;;;;;;0.20;0.20;;;22.30;71.70;;;;;;5028457;28;20044;-75
2023/08/27 03:15:43;;;;;;;0.38;0.20;;;22.30;71.70;;;;;;5025560;28;20574;-76
2023/08/27 03:18:09;;;;;;;0.35;0.30;;;22.30;71.70;;;;;;5028203;28;20408;-75
2023/08/27 03:20:35;;;;;;;0.25;0.22;;;22.30;71.70;;;;;;5027320;28;20423;-75
2023/08/27 03:23:00;;;;;;;0.30;0.30;;;22.30;71.70;;;;;;5026946;28;20042;-75
2023/08/27 03:25:26;;;;;;;0.57;0.30;;;22.30;72.60;;;;;;5026934;28;20196;-75
2023/08/27 03:27:52;;;;;;;0.73;0.30;;;22.30;71.70;;;;;;5026213;28;20045;-75
2023/08/27 03:30:17;;;;;;;0.73;0.30;;;22.30;71.70;;;;;;5024732;28;20046;-75
2023/08/27 03:32:43;;;;;;;0.30;0.30;;;22.30;71.70;;;;;;5025937;28;20037;-75
2023/08/27 03:35:09;;;;;;;0.30;0.20;;;22.30;71.70;;;;;;5025353;28;20053;-75
2023/08/27 03:37:34;;;;;;;0.30;0.30;;;22.30;71.70;;;;;;5022695;28;20969;-75
2023/08/27 03:40:00;;;;;;;0.25;0.20;;;22.30;71.70;;;;;;5024693;28;20491;-75
2023/08/27 03:42:26;;;;;;;0.50;0.15;;;22.20;71.60;;;;;;5029837;28;20143;-75
2023/08/27 03:44:51;;;;;;;0.20;0.20;;;22.20;72.40;;;;;;5023415;28;20073;-75
2023/08/27 03:47:17;;;;;;;0.25;0.25;;;22.20;71.60;;;;;;5023902;28;20112;-75
2023/08/27 03:49:43;;;;;;;0.32;0.30;;;22.30;71.70;;;;;;5025352;28;20507;-75
2023/08/27 03:52:08;;;;;;;0.30;0.30;;;22.20;71.60;;;;;;5025806;28;20038;-75
2023/08/27 03:54:34;;;;;;;0.35;0.32;;;22.30;71.70;;;;;;5027777;28;20041;-75
2023/08/27 03:56:59;;;;;;;0.82;0.55;;;22.30;71.70;;;;;;5023258;28;20049;-75
2023/08/27 03:59:25;;;;;;;0.40;0.30;;;22.20;71.50;;;;;;5022144;28;20114;-74
2023/08/27 04:01:52;;;;;;;0.20;0.20;;;22.20;72.30;;;;;;5026770;28;20115;-75
2023/08/27 04:04:18;;;;;;;0.15;0.15;;;22.20;71.50;;;;;;5026472;28;20091;-75
2023/08/27 04:06:43;;;;;;;0.20;0.20;;;22.20;71.60;;;;;;5028401;28;20046;-74
2023/08/27 04:09:09;;;;;;;0.10;0.10;;;22.30;71.70;;;;;;5025466;28;20041;-75
2023/08/27 04:11:35;;;;;;;0.38;0.22;;;22.30;72.50;;;;;;5023526;28;20044;-75
2023/08/27 04:14:00;;;;;;;0.20;0.20;;;22.30;71.70;;;;;;5026362;28;20038;-75
2023/08/27 04:16:26;;;;;;;0.28;0.22;;;22.20;71.60;;;;;;5026181;28;20538;-75
2023/08/27 04:18:51;;;;;;;0.25;0.20;;;22.30;71.60;;;;;;5024894;28;20076;-75
2023/08/27 04:21:17;;;;;;;0.40;0.38;;;22.20;71.50;;;;;;5021901;28;20033;-75
2023/08/27 04:23:42;;;;;;;0.20;0.20;;;22.20;71.60;;;;;;5024462;28;20423;-75
2023/08/27 04:26:08;;;;;;;0.22;0.22;;;22.20;71.50;;;;;;5021935;28;20132;-75
2023/08/27 04:28:33;;;;;;;0.22;0.22;;;22.20;71.60;;;;;;5025563;28;20135;-75
2023/08/27 04:30:59;;;;;;;0.28;0.20;;;22.20;71.50;;;;;;5024852;28;20098;-75
2023/08/27 04:33:25;;;;;;;0.45;0.20;;;22.20;71.60;;;;;;5024922;28;20040;-75
2023/08/27 04:35:52;;;;;;;0.13;0.13;;;22.20;71.60;;;;;;5020854;28;20044;-75
2023/08/27 04:38:19;;;;;;;2.05;0.40;;;22.20;71.50;;;;;;5025180;28;20037;-75
2023/08/27 04:40:49;;;;;;;0.35;0.25;;;22.20;71.50;;;;;;5025082;28;20303;-75
2023/08/27 04:43:15;;;;;;;0.30;0.30;;;22.20;72.30;;;;;;5024148;28;20050;-74
2023/08/27 04:45:40;;;;;;;0.32;0.30;;;22.20;71.50;;;;;;5027399;28;20055;-75
2023/08/27 04:48:06;;;;;;;0.20;0.20;;;22.20;71.50;;;;;;5024386;28;20045;-75
2023/08/27 04:50:31;;;;;;;0.20;0.17;;;22.20;71.50;;;;;;5023669;28;20499;-75
2023/08/27 04:52:57;;;;;;;0.30;0.20;;;22.20;71.50;;;;;;5020509;28;20510;-75
2023/08/27 04:55:23;;;;;;;0.20;0.20;;;22.20;71.50;;;;;;5023457;28;20045;-75
2023/08/27 04:57:49;;;;;;;0.28;0.22;;;22.20;71.50;;;;;;5025169;28;20092;-75
2023/08/27 05:00:20;;;;;;;0.30;0.30;;;22.10;71.40;;;;;;5023784;28;20065;-75
2023/08/27 05:02:49;;;;;;;0.22;0.13;;;22.10;71.40;;;;;;5026465;28;20196;-75
2023/08/27 05:05:15;;;;;;;0.20;0.10;;;22.20;71.50;;;;;;5023084;28;20563;-74
2023/08/27 05:07:41;;;;;;;0.20;0.17;;;22.10;71.50;;;;;;5025729;28;20050;-75
2023/08/27 05:10:07;;;;;;;1.00;0.28;;;22.20;71.40;;;;;;5024266;28;20047;-74
2023/08/27 05:12:32;;;;;;;0.20;0.20;;;22.10;71.30;;;;;;5024301;28;20041;-75
2023/08/27 05:14:58;;;;;;;1.08;0.17;;;22.10;71.30;;;;;;5023573;28;20541;-75
2023/08/27 05:17:23;;;;;;;0.30;0.20;;;22.10;71.40;;;;;;5022523;28;20096;-75
2023/08/27 05:19:49;;;;;;;0.20;0.20;;;22.10;71.30;;;;;;5025462;28;20124;-76
2023/08/27 05:22:14;;;;;;;0.20;0.20;;;22.20;71.30;;;;;;5022505;28;20144;-75
2023/08/27 05:24:40;;;;;;;0.20;0.20;;;22.20;71.30;;;;;;5024471;28;20038;-75
2023/08/27 05:27:06;;;;;;;0.32;0.28;;;22.20;71.30;;;;;;5022623;28;20499;-75
2023/08/27 05:29:31;;;;;;;0.30;0.20;;;22.10;71.30;;;;;;5025633;28;20041;-75
2023/08/27 05:31:57;;;;;;;0.20;0.20;;;22.20;71.30;;;;;;5018762;28;20053;-76
2023/08/27 05:34:25;;;;;;;0.20;0.20;;;22.20;71.30;;;;;;5023812;28;20534;-74
2023/08/27 05:36:51;;;;;;;0.20;0.20;;;22.20;71.30;;;;;;5026117;28;20065;-75
2023/08/27 05:39:16;;;;;;;0.20;0.20;;;22.10;71.20;;;;;;5020100;28;20520;-75
2023/08/27 05:41:42;;;;;;;0.43;0.20;;;22.10;71.30;;;;;;5017089;28;20495;-75
2023/08/27 05:44:07;;;;;;;0.17;0.17;;;22.20;71.30;;;;;;5019669;28;20053;-75
2023/08/27 05:46:33;;;;;;;0.10;0.10;;;22.20;71.30;;;;;;5025351;28;21895;-75
2023/08/27 05:49:00;;;;;;;0.22;0.22;;;22.10;71.30;;;;;;5025292;28;20064;-75
2023/08/27 05:51:25;;;;;;;0.20;0.20;;;22.20;71.40;;;;;;5025755;28;20048;-75
2023/08/27 05:53:51;;;;;;;0.30;0.30;;;22.10;71.30;;;;;;5024987;28;20045;-76
2023/08/27 05:56:16;;;;;;;0.20;0.20;;;22.10;71.30;;;;;;5025917;28;20069;-74
2023/08/27 05:58:42;;;;;;;0.30;0.20;;;22.10;71.30;;;;;;5021040;28;20542;-75
2023/08/27 06:01:08;;;;;;;0.60;0.40;;;22.10;71.30;;;;;;5024982;28;20025;-75
2023/08/27 06:03:33;;;;;;;0.30;0.30;;;22.10;71.30;;;;;;5025901;28;20041;-75
2023/08/27 06:05:59;;;;;;;0.17;0.17;;;22.10;71.30;;;;;;5026527;28;20033;-75
2023/08/27 06:08:24;;;;;;;0.30;0.30;;;22.10;71.20;;;;;;5029064;28;20195;-74
2023/08/27 06:10:50;;;;;;;0.55;0.28;;;22.10;71.20;;;;;;5026527;28;20045;-75
2023/08/27 06:13:15;;;;;;;0.40;0.20;;;22.10;71.20;;;;;;5028870;28;20124;-74
2023/08/27 06:15:41;;;;;;;0.50;0.38;;;22.10;71.20;;;;;;5029135;28;20434;-75
2023/08/27 06:18:07;;;;;;;0.20;0.20;;;22.10;71.20;;;;;;5028051;28;20049;-75
2023/08/27 06:20:35;;;;;;;0.47;0.30;;;22.10;71.20;;;;;;5027486;28;20045;-75
2023/08/27 06:23:07;;;;;;;0.40;0.30;;;22.10;71.20;;;;;;5027520;28;20057;-75
2023/08/27 06:25:33;;;;;;;0.22;0.20;;;22.10;71.20;;;;;;5027983;28;20475;-74
2023/08/27 06:27:59;;;;;;;0.47;0.30;;;22.10;71.20;;;;;;5026789;28;20037;-74
2023/08/27 06:30:25;;;;;;;0.25;0.20;;;22.10;71.20;;;;;;5026663;28;20045;-75
2023/08/27 06:32:50;;;;;;;0.20;0.20;;;22.10;71.20;;;;;;5027297;28;20499;-74
2023/08/27 06:35:16;;;;;;;0.38;0.15;;;22.10;71.20;;;;;;5026342;28;20399;-75
2023/08/27 06:37:41;;;;;;;0.32;0.30;;;22.10;71.20;;;;;;5029422;28;20037;-75
2023/08/27 06:40:07;;;;;;;0.68;0.30;;;22.10;71.20;;;;;;5027556;28;20641;-74
2023/08/27 06:42:33;;;;;;;0.10;0.10;;;22.10;71.20;;;;;;5026167;28;20033;-75
2023/08/27 06:45:00;;;;;;;0.20;0.20;;;22.10;71.20;;;;;;5022207;28;20044;-75
2023/08/27 06:47:25;;;;;;;0.28;0.15;;;22.10;71.20;;;;;;5025097;28;20041;-75
2023/08/27 06:49:51;;;;;;;0.40;0.32;;;22.10;72.00;;;;;;5027899;28;20534;-74
2023/08/27 06:52:18;;;;;;;0.22;0.20;;;22.10;71.20;;;;;;5026471;28;20029;-75
2023/08/27 06:54:43;;;;;;;0.40;0.20;;;22.10;71.20;;;;;;5026408;28;20046;-75
2023/08/27 06:57:09;;;;;;;0.20;0.20;;;22.10;71.20;;;;;;5026955;28;20037;-75
2023/08/27 06:59:35;;;;;;;0.20;0.20;;;22.10;71.20;;;;;;5026310;28;20526;-75
2023/08/27 07:02:00;;;;;;;0.10;0.10;;;22.10;71.20;;;;;;5027597;28;20037;-75
2023/08/27 07:04:26;;;;;;;0.32;0.20;;;22.10;71.20;;;;;;5025420;28;20052;-75
2023/08/27 07:06:52;;;;;;;0.13;0.13;;;22.10;71.10;;;;;;5028906;28;20044;-75
2023/08/27 07:09:17;;;;;;;0.20;0.20;;;22.10;71.10;;;;;;5027406;28;20042;-75
2023/08/27 07:11:43;;;;;;;0.20;0.20;;;22.10;71.10;;;;;;5027550;28;20618;-74
2023/08/27 07:14:08;;;;;;;0.20;0.20;;;22.10;71.10;;;;;;5026310;28;20526;-75
2023/08/27 07:16:34;;;;;;;0.25;0.20;;;22.10;71.00;;;;;;5025754;28;20428;-75
2023/08/27 07:18:59;;;;;;;0.10;0.10;;;22.10;71.00;;;;;;5025965;28;20051;-75
2023/08/27 07:21:25;;;;;;;0.22;0.20;;;22.10;71.00;;;;;;5026333;28;20088;-75
2023/08/27 07:23:51;;;;;;;0.75;0.25;;;22.10;71.00;;;;;;5027137;28;20525;-74
2023/08/27 07:26:16;;;;;;;0.50;0.20;;;22.10;71.00;;;;;;5026277;28;20057;-74
2023/08/27 07:28:42;;;;;;;0.20;0.20;;;22.10;71.10;;;;;;5027174;28;20049;-74
2023/08/27 07:31:07;;;;;;;0.30;0.20;;;22.10;71.00;;;;;;5027579;28;20048;-74
2023/08/27 07:33:34;;;;;;;0.35;0.32;;;22.10;71.00;;;;;;5022510;28;20112;-74
2023/08/27 07:35:59;;;;;;;0.20;0.20;;;22.10;71.00;;;;;;5026767;28;20211;-75
2023/08/27 07:38:26;;;;;;;0.40;0.20;;;22.20;71.00;;;;;;5027084;28;20076;-74
2023/08/27 07:40:52;;;;;;;0.50;0.30;;;22.10;71.00;;;;;;5025866;28;20041;-75
2023/08/27 07:43:17;;;;;;;0.10;0.10;;;22.10;70.90;;;;;;5025396;28;20057;-75
2023/08/27 07:45:43;;;;;;;0.20;0.20;;;22.10;70.90;;;;;;5028667;28;20045;-74
2023/08/27 07:48:08;;;;;;;0.20;0.20;;;22.10;70.90;;;;;;5025712;28;20045;-75
2023/08/27 07:50:34;;;;;;;0.40;0.10;;;22.20;71.00;;;;;;5024783;28;20515;-75
2023/08/27 07:52:59;;;;;;;0.32;0.30;;;22.20;71.80;;;;;;5025601;28;20049;-75
2023/08/27 07:55:27;;;;;;;0.10;0.10;;;22.10;71.00;;;;;;5026796;28;20944;-75
2023/08/27 07:57:52;;;;;;;0.50;0.20;;;22.10;70.90;;;;;;5024587;28;20048;-75
2023/08/27 08:00:19;;;;;;;0.45;0.45;;;22.20;71.00;;;;;;5027001;28;20057;-75
2023/08/27 08:02:44;;;;;;;0.10;0.10;;;22.20;71.00;;;;;;5025971;28;20042;-75
2023/08/27 08:05:10;;;;;;;0.30;0.30;;;22.10;70.90;;;;;;5019109;28;20526;-75
2023/08/27 08:07:35;;;;;;;0.20;0.13;;;22.20;71.00;;;;;;5023184;28;20067;-74
2023/08/27 08:10:01;;;;;;;0.40;0.20;;;22.20;71.00;;;;;;5026580;28;20119;-75
2023/08/27 08:12:27;;;;;;;0.40;0.40;;;22.20;70.90;;;;;;5025756;28;20045;-75
2023/08/27 08:14:53;;;;;;;0.25;0.20;;;22.20;70.90;;;;;;5025077;28;20044;-74
2023/08/27 08:17:18;;;;;;;0.20;0.20;;;22.20;70.90;;;;;;5021361;28;20108;-75
2023/08/27 08:19:44;;;;;;;0.30;0.30;;;22.20;70.90;;;;;;5025525;28;20129;-75
2023/08/27 08:22:09;;;;;;;0.20;0.20;;;22.30;71.10;;;;;;5024851;28;20052;-74
2023/08/27 08:24:35;;;;;;;0.10;0.10;;;22.30;70.90;;;;;;5025257;28;20037;-74
2023/08/27 08:27:02;;;;;;;0.30;0.30;;;22.30;70.90;;;;;;5025495;28;20099;-76
2023/08/27 08:29:31;;;;;;;0.10;0.10;;;22.30;70.80;;;;;;5026727;28;20041;-74
2023/08/27 08:31:57;;;;;;;0.40;0.10;;;22.30;70.60;;;;;;5024303;28;20049;-74
2023/08/27 08:34:23;;;;;;;0.30;0.10;;;22.30;70.60;;;;;;5024949;28;20041;-74
2023/08/27 08:36:49;;;;;;;0.20;0.10;;;22.30;70.70;;;;;;5026985;28;20051;-75
2023/08/27 08:39:14;;;;;;;0.20;0.10;;;22.40;70.70;;;;;;5021581;28;20060;-75
2023/08/27 08:41:41;;;;;;;0.60;0.10;;;22.40;70.50;;;;;;5020766;28;20049;-74
2023/08/27 08:44:30;;;;;;;0.20;0.20;;;22.40;70.40;;;;;;5024442;28;20040;-75
2023/08/27 08:46:56;;;;;;;0.47;0.10;;;22.50;70.50;;;;;;5021649;28;20671;-75
2023/08/27 08:49:30;;;;;;;0.23;0.18;;;22.50;70.40;;;;;;4607225;28;10003261;-75
2023/08/27 08:51:56;;;;;;;0.20;0.20;;;22.50;70.30;;;;;;5017953;28;20551;-74
2023/08/27 08:54:22;;;;;;;0.13;0.13;;;22.50;70.20;;;;;;5020290;28;20598;-75
2023/08/27 08:56:48;;;;;;;0.32;0.30;;;22.50;70.20;;;;;;5019535;28;20116;-74
2023/08/27 08:59:14;;;;;;;0.20;0.20;;;22.60;70.10;;;;;;5020608;28;20128;-75
2023/08/27 09:01:39;;;;;;;0.20;0.20;;;22.50;70.10;;;;;;5022312;28;20049;-75
2023/08/27 09:04:06;;;;;;;0.10;0.10;;;22.60;70.10;;;;;;5022062;28;20041;-74
2023/08/27 09:06:31;;;;;;;0.20;0.17;;;22.60;70.20;;;;;;5021107;28;20500;-75
2023/08/27 09:08:57;;;;;;;0.20;0.10;;;22.60;70.20;;;;;;5021418;28;20045;-74
2023/08/27 09:11:23;;;;;;;0.10;0.10;;;22.70;70.20;;;;;;5020187;28;20107;-75
2023/08/27 09:13:48;;;;;;;0.30;0.20;;;22.70;70.20;;;;;;5018751;28;20470;-75
2023/08/27 09:16:14;;;;;;;0.25;0.10;;;22.60;70.10;;;;;;5018298;28;20138;-75
2023/08/27 09:18:39;;;;;;;0.20;0.05;;;22.60;69.90;;;;;;5015028;28;20511;-75
2023/08/27 09:21:06;;;;;;;1.08;0.17;;;22.70;70.00;;;;;;5022151;28;21079;-75
2023/08/27 09:23:37;;;;;;;0.10;0.10;;;22.60;69.90;;;;;;5017102;28;20563;-74
2023/08/27 09:26:03;;;;;;;0.68;0.25;;;22.60;69.70;;;;;;5018718;28;20487;-74
2023/08/27 09:28:29;;;;;;;0.20;0.20;;;22.60;69.60;;;;;;5019509;28;20526;-75
2023/08/27 09:30:54;;;;;;;6.38;0.28;;;22.60;69.70;;;;;;5023257;28;20061;-74
2023/08/27 09:33:27;;;;;;;0.15;0.10;;;22.70;69.90;;;;;;5021278;28;20511;-75
2023/08/27 09:35:52;;;;;;;0.20;0.20;;;22.70;69.90;;;;;;5021235;28;20045;-75
2023/08/27 09:38:18;;;;;;;0.20;0.15;;;22.70;69.70;;;;;;5021126;28;20064;-75
2023/08/27 09:40:43;;;;;;;0.30;0.10;;;22.70;69.80;;;;;;5024536;28;20053;-74
2023/08/27 09:43:10;;;;;;;0.22;0.10;;;22.70;69.60;;;;;;5024026;28;20037;-75
2023/08/27 09:45:36;;;;;;;0.20;0.20;;;22.80;69.70;;;;;;5024096;28;20072;-74
2023/08/27 09:48:03;;;;;;;0.25;0.17;;;22.70;69.70;;;;;;5024508;28;20045;-74
2023/08/27 09:50:29;;;;;;;0.40;0.20;;;22.70;69.80;;;;;;5011063;28;20056;-74
2023/08/27 09:53:07;;;;;;;0.15;0.15;;;22.70;69.80;;;;;;5024759;28;20050;-75
2023/08/27 09:55:37;;;;;;;0.10;0.10;;;22.70;69.80;;;;;;5024556;28;20052;-74
2023/08/27 09:58:04;;;;;;;0.30;0.20;;;22.70;69.90;;;;;;5026158;28;20037;-74
2023/08/27 10:00:29;;;;;;;0.40;0.20;;;22.70;69.80;;;;;;5022182;28;20061;-74
2023/08/27 10:02:56;;;;;;;0.15;0.15;;;22.70;69.90;;;;;;5019008;28;20546;-74
2023/08/27 10:05:27;;;;;;;0.35;0.28;;;22.70;69.70;;;;;;5023646;28;20044;-74
2023/08/27 10:07:58;;;;;;;1.17;0.13;;;22.80;69.90;;;;;;5023139;28;20099;-74
2023/08/27 10:10:23;;;;;;;0.25;0.15;;;22.80;69.90;;;;;;5021455;28;20080;-75
2023/08/27 10:12:49;;;;;;;0.20;0.10;;;22.80;69.80;;;;;;5021459;28;20062;-74
2023/08/27 10:15:16;;;;;;;0.20;0.20;;;22.80;69.80;;;;;;5021882;28;20092;-75
2023/08/27 10:17:42;;;;;;;0.30;0.20;;;22.80;69.70;;;;;;5025354;28;20042;-74
2023/08/27 10:20:08;;;;;;;0.50;0.50;;;22.80;70.00;;;;;;5024619;28;20042;-74
2023/08/27 10:22:33;;;;;;;1.27;0.52;;;22.70;67.30;;;;;;5023435;28;20056;-74
2023/08/27 10:24:59;;;;;;;1.17;0.80;;;22.30;67.20;;;;;;5021616;28;20045;-73
2023/08/27 10:27:25;;;;;;;1.15;0.63;;;22.30;68.20;;;;;;5022272;28;20037;-74
2023/08/27 10:29:50;;;;;;;1.50;0.85;;;22.20;68.90;;;;;;5023422;28;20076;-74
2023/08/27 10:32:16;;;;;;;0.70;0.50;;;22.30;69.70;;;;;;5022725;28;20526;-74
2023/08/27 10:34:41;;;;;;;0.50;0.50;;;22.40;69.20;;;;;;5024156;28;20485;-74
2023/08/27 10:37:08;;;;;;;0.88;0.50;;;22.40;69.70;;;;;;5020275;28;20037;-78
2023/08/27 10:39:34;;;;;;;0.75;0.40;;;22.50;69.80;;;;;;5019719;28;20040;-75
2023/08/27 10:41:59;;;;;;;0.55;0.40;;;22.60;69.50;;;;;;5023506;28;20064;-74
2023/08/27 10:44:25;;;;;;;0.80;0.50;;;22.70;69.20;;;;;;5021141;28;21710;-75
2023/08/27 10:47:11;;;;;;;1.38;0.35;;;22.70;69.20;;;;;;5023741;28;20053;-74
2023/08/27 10:49:37;;;;;;;0.63;0.38;;;22.70;69.00;;;;;;5020694;28;20046;-74
2023/08/27 10:52:19;;;;;;;0.93;0.40;;;22.70;69.10;;;;;;5020514;28;20033;-75
2023/08/27 10:54:46;;;;;;;0.95;0.52;;;22.70;69.10;;;;;;5025276;28;20052;-75
2023/08/27 10:57:21;;;;;;;1.15;0.52;;;22.70;69.20;;;;;;5021086;28;20068;-75
2023/08/27 10:59:47;;;;;;;0.43;0.40;;;22.70;69.40;;;;;;5022848;28;20053;-75
2023/08/27 11:02:12;;;;;;;0.38;0.38;;;22.70;69.20;;;;;;5019048;28;20438;-76
2023/08/27 11:04:40;;;;;;;1.10;0.57;;;22.70;69.50;;;;;;5023469;28;20404;-75
2023/08/27 11:07:10;;;;;;;1.30;0.40;;;22.70;69.40;;;;;;5022505;28;20116;-75
2023/08/27 11:09:48;;;;;;;0.30;0.30;;;22.70;69.60;;;;;;5019406;28;20041;-76
2023/08/27 11:12:40;;;;;;;1.05;0.50;;;22.70;69.60;;;;;;5021520;28;20041;-76
2023/08/27 11:15:12;;;;;;;0.30;0.30;;;22.80;69.40;;;;;;5019171;28;20684;-75
2023/08/27 11:17:38;;;;;;;2.08;0.30;;;22.80;69.40;;;;;;5015450;28;20038;-75
2023/08/27 11:20:24;;;;;;;0.32;0.30;;;22.80;69.50;;;;;;5021757;28;20052;-76
2023/08/27 11:23:02;;;;;;;0.38;0.17;;;22.80;69.70;;;;;;5022250;28;20148;-76
2023/08/27 11:25:29;;;;;;;0.35;0.22;;;22.70;69.60;;;;;;5023522;28;20053;-75
2023/08/27 11:27:55;;;;;;;0.40;0.30;;;22.80;69.60;;;;;;5020324;28;20042;-75
2023/08/27 11:30:23;;;;;;;0.40;0.22;;;22.70;69.50;;;;;;5023823;28;20049;-75
2023/08/27 11:32:49;;;;;;;0.85;0.25;;;22.80;69.70;;;;;;5021288;28;20072;-75
2023/08/27 11:35:14;;;;;;;1.25;0.30;;;22.80;69.70;;;;;;5022873;28;20495;-75
2023/08/27 11:37:40;;;;;;;0.35;0.30;;;22.80;69.80;;;;;;5023211;28;20138;-75
2023/08/27 11:40:15;;;;;;;0.32;0.20;;;22.80;69.80;;;;;;5023856;28;20044;-75
2023/08/27 11:42:51;;;;;;;0.35;0.22;;;22.80;69.90;;;;;;5024982;28;20053;-74
2023/08/27 11:45:17;;;;;;;0.60;0.30;;;22.80;69.80;;;;;;5023239;28;20128;-75
2023/08/27 11:47:42;;;;;;;1.25;0.17;;;22.80;69.80;;;;;;5022619;28;20164;-75
2023/08/27 11:50:08;;;;;;;0.30;0.10;;;22.80;69.70;;;;;;5022575;28;20090;-75
2023/08/27 11:52:38;;;;;;;0.20;0.20;;;22.80;70.00;;;;;;5023074;28;20053;-75
2023/08/27 11:55:04;;;;;;;0.10;0.10;;;22.80;70.00;;;;;;5021666;28;20556;-74
2023/08/27 11:57:29;;;;;;;0.13;0.10;;;22.80;69.80;;;;;;5022660;28;20511;-75
2023/08/27 11:59:55;;;;;;;0.32;0.20;;;22.80;69.80;;;;;;5022819;28;20041;-74
2023/08/27 12:02:21;;;;;;;0.60;0.22;;;22.80;69.80;;;;;;5022253;28;20552;-75
2023/08/27 12:04:47;;;;;;;0.50;0.30;;;22.80;70.00;;;;;;5006469;28;20061;-75
2023/08/27 12:07:24;;;;;;;0.20;0.20;;;22.80;70.10;;;;;;5018176;28;20069;-76
2023/08/27 12:09:50;;;;;;;0.30;0.30;;;22.80;70.00;;;;;;5021898;28;20050;-75
2023/08/27 12:12:15;;;;;;;1.55;0.20;;;22.80;69.90;;;;;;5021764;28;20475;-75
2023/08/27 12:14:41;;;;;;;0.30;0.30;;;22.90;70.00;;;;;;5023313;28;20037;-75
2023/08/27 12:17:07;;;;;;;1.85;0.22;;;22.90;69.90;;;;;;5023071;28;20154;-75
2023/08/27 12:19:34;;;;;;;0.30;0.15;;;22.90;69.90;;;;;;5017197;28;20046;-75
2023/08/27 12:21:59;;;;;;;0.60;0.20;;;22.90;69.90;;;;;;5022553;28;20112;-76
2023/08/27 12:24:34;;;;;;;0.73;0.30;;;22.90;70.00;;;;;;5022351;28;20542;-76
2023/08/27 12:27:10;;;;;;;0.30;0.30;;;22.90;70.00;;;;;;5022292;28;20094;-76
2023/08/27 12:29:40;;;;;;;0.40;0.20;;;22.90;70.00;;;;;;5015164;28;20030;-76
2023/08/27 12:32:08;;;;;;;0.30;0.30;;;22.90;70.00;;;;;;5020262;28;20099;-75
2023/08/27 12:34:38;;;;;;;0.20;0.20;;;22.80;69.90;;;;;;5021035;28;20116;-75
2023/08/27 12:37:03;;;;;;;0.20;0.20;;;22.90;70.00;;;;;;5019199;28;20057;-75
2023/08/27 12:39:30;;;;;;;0.10;0.10;;;22.90;70.10;;;;;;5020774;28;20533;-75
2023/08/27 12:41:56;;;;;;;0.60;0.20;;;22.90;70.10;;;;;;5021486;28;20076;-75